Time;durP1;ratioP1;P1;durP2;ratioP2;P2;SDS_P1;SDS_P2;PMS_P1;PMS_P2;Temp;Humidity;BMP_temperature;BMP_pressure;BME280_temperature;BME280_humidity;BME280_pressure;Samples;Min_cycle;Max_cycle;Signal;HPM_P1;HPM_P2
2022/07/29 00:01:08;;;;;;;8.82;7.95;;;;;;;;;;5092016;28;20032;-80
2022/07/29 00:03:34;;;;;;;9.23;8.43;;;;;;;;;;5092313;28;20020;-80
2022/07/29 00:06:00;;;;;;;8.50;7.70;;;;;;;;;;5092353;28;20031;-80
2022/07/29 00:08:26;;;;;;;8.45;7.75;;;;;;;;;;5091718;28;20104;-79
2022/07/29 00:10:52;;;;;;;9.80;8.88;;;;;;;;;;5092259;28;20020;-80
2022/07/29 00:13:19;;;;;;;10.13;9.02;;;;;;;;;;5073847;28;20024;-79
2022/07/29 00:15:45;;;;;;;10.30;9.15;;;;;;;;;;5092204;28;20024;-80
2022/07/29 00:18:11;;;;;;;9.77;8.85;;;;;;;;;;5092031;28;20031;-79
2022/07/29 00:20:37;;;;;;;9.18;8.38;;;;;;;;;;5091617;28;20171;-80
2022/07/29 00:23:03;;;;;;;11.07;9.98;;;;;;;;;;5092021;28;20035;-80
2022/07/29 00:25:29;;;;;;;10.15;9.15;;;;;;;;;;5091779;28;20025;-79
2022/07/29 00:27:55;;;;;;;8.77;7.97;;;;;;;;;;5092061;28;20016;-79
2022/07/29 00:30:21;;;;;;;9.52;8.48;;;;;;;;;;5094472;28;20028;-79
2022/07/29 00:32:47;;;;;;;10.40;9.40;;;;;;;;;;5095730;28;20024;-80
2022/07/29 00:37:58;;;;;;;8.57;7.88;;;;;;;;;;5095535;28;20039;-79
2022/07/29 00:40:24;;;;;;;8.82;8.07;;;;;;;;;;5077008;28;20028;-79
2022/07/29 00:42:51;;;;;;;10.07;9.05;;;;;;;;;;5095399;28;20096;-80
2022/07/29 00:45:17;;;;;;;8.88;8.02;;;;;;;;;;5095128;28;20073;-80
2022/07/29 00:47:43;;;;;;;9.45;8.43;;;;;;;;;;5095216;28;20020;-80
2022/07/29 00:50:11;;;;;;;11.40;9.88;;;;;;;;;;5094842;28;20020;-80
2022/07/29 00:52:38;;;;;;;9.48;8.57;;;;;;;;;;5095295;28;20095;-80
2022/07/29 00:55:05;;;;;;;10.00;9.05;;;;;;;;;;5095216;28;20028;-80
2022/07/29 00:57:32;;;;;;;8.48;7.78;;;;;;;;;;5095086;28;20091;-80
2022/07/29 00:59:58;;;;;;;9.95;8.95;;;;;;;;;;5094870;28;20531;-80
2022/07/29 01:02:24;;;;;;;8.80;7.90;;;;;;;;;;5094795;28;20032;-80
2022/07/29 01:04:50;;;;;;;9.18;8.38;;;;;;;;;;5094982;28;20474;-79
2022/07/29 01:07:17;;;;;;;8.65;7.90;;;;;;;;;;5094775;28;20024;-80
2022/07/29 01:09:44;;;;;;;7.78;7.18;;;;;;;;;;5094467;28;20097;-80
2022/07/29 01:12:12;;;;;;;9.13;8.30;;;;;;;;;;5094723;28;20098;-80
2022/07/29 01:14:40;;;;;;;9.15;8.25;;;;;;;;;;5094856;28;20022;-80
2022/07/29 01:17:25;;;;;;;8.00;7.30;;;;;;;;;;5076360;28;20455;-80
2022/07/29 01:20:09;;;;;;;9.40;8.50;;;;;;;;;;5094726;28;20033;-80
2022/07/29 01:22:36;;;;;;;10.10;9.10;;;;;;;;;;5094573;28;20024;-80
2022/07/29 01:25:05;;;;;;;10.07;9.07;;;;;;;;;;5094147;28;20017;-80
2022/07/29 01:27:49;;;;;;;9.80;8.90;;;;;;;;;;5094546;28;20020;-80
2022/07/29 01:30:16;;;;;;;10.27;8.77;;;;;;;;;;5094627;28;20016;-80
2022/07/29 01:32:43;;;;;;;10.32;9.43;;;;;;;;;;5094268;28;20028;-80
2022/07/29 01:35:13;;;;;;;13.00;10.68;;;;;;;;;;5094035;28;20043;-80
2022/07/29 01:37:58;;;;;;;13.85;11.15;;;;;;;;;;5094232;28;20120;-80
2022/07/29 01:40:33;;;;;;;11.98;10.07;;;;;;;;;;5094171;28;20529;-80
2022/07/29 01:43:03;;;;;;;14.13;11.05;;;;;;;;;;5094159;28;20024;-80
2022/07/29 01:45:35;;;;;;;10.18;8.98;;;;;;;;;;5094026;28;20463;-80
2022/07/29 01:48:03;;;;;;;10.98;9.70;;;;;;;;;;5094013;28;20028;-80
2022/07/29 01:50:48;;;;;;;10.00;9.10;;;;;;;;;;5094123;28;20020;-80
2022/07/29 01:53:17;;;;;;;10.00;9.10;;;;;;;;;;5094198;28;20097;-80
2022/07/29 01:55:44;;;;;;;9.82;8.93;;;;;;;;;;5093590;28;20126;-80
2022/07/29 01:58:11;;;;;;;10.75;9.75;;;;;;;;;;5075955;28;20039;-79
2022/07/29 02:00:38;;;;;;;11.40;10.10;;;;;;;;;;5093748;28;20030;-80
2022/07/29 02:03:08;;;;;;;9.90;8.98;;;;;;;;;;5093895;28;20356;-80
2022/07/29 02:05:35;;;;;;;9.32;8.52;;;;;;;;;;5093479;28;20044;-80
2022/07/29 02:08:02;;;;;;;9.77;8.82;;;;;;;;;;5093767;28;20102;-80
2022/07/29 02:10:30;;;;;;;9.95;9.05;;;;;;;;;;5093845;28;20463;-80
2022/07/29 02:12:57;;;;;;;10.02;9.13;;;;;;;;;;5093579;28;20081;-80
2022/07/29 02:15:25;;;;;;;11.05;10.07;;;;;;;;;;5093238;28;20028;-80
2022/07/29 02:17:56;;;;;;;10.65;9.73;;;;;;;;;;5093462;28;20028;-80
2022/07/29 02:20:23;;;;;;;10.93;9.93;;;;;;;;;;5093663;28;20028;-80
2022/07/29 02:22:50;;;;;;;10.75;9.85;;;;;;;;;;5093256;28;20081;-80
2022/07/29 02:25:17;;;;;;;10.45;9.48;;;;;;;;;;5093088;28;20020;-80
2022/07/29 02:27:43;;;;;;;10.90;9.93;;;;;;;;;;5075039;28;20024;-80
2022/07/29 02:30:10;;;;;;;11.10;10.20;;;;;;;;;;5093368;28;20020;-80
2022/07/29 02:32:37;;;;;;;11.88;10.77;;;;;;;;;;5093167;28;20016;-80
2022/07/29 02:35:04;;;;;;;11.13;10.13;;;;;;;;;;5093264;28;20058;-81
2022/07/29 02:37:31;;;;;;;11.48;10.38;;;;;;;;;;5093002;28;20036;-80
2022/07/29 02:39:58;;;;;;;11.60;10.57;;;;;;;;;;5093158;28;20067;-80
2022/07/29 02:42:27;;;;;;;11.05;10.13;;;;;;;;;;5092996;28;20474;-80
2022/07/29 02:44:53;;;;;;;11.10;10.15;;;;;;;;;;5092987;28;20062;-80
2022/07/29 02:47:37;;;;;;;11.70;10.60;;;;;;;;;;5092876;28;20035;-80
2022/07/29 02:50:09;;;;;;;10.93;9.93;;;;;;;;;;5093063;28;20027;-80
2022/07/29 02:52:40;;;;;;;11.18;10.18;;;;;;;;;;5092442;28;20481;-80
2022/07/29 02:55:24;;;;;;;11.43;10.23;;;;;;;;;;5092796;28;20501;-80
2022/07/29 02:58:06;;;;;;;14.70;11.98;;;;;;;;;;5072606;28;20024;-80
2022/07/29 03:00:35;;;;;;;12.05;10.77;;;;;;;;;;5072574;28;20120;-80
2022/07/29 03:03:04;;;;;;;11.82;10.70;;;;;;;;;;5072302;28;20103;-79
2022/07/29 03:05:31;;;;;;;10.55;9.55;;;;;;;;;;5074646;28;20100;-79
2022/07/29 03:08:07;;;;;;;11.57;10.40;;;;;;;;;;5092600;28;20048;-80
2022/07/29 03:10:34;;;;;;;12.20;11.13;;;;;;;;;;5092588;28;20047;-79
2022/07/29 03:13:01;;;;;;;15.85;11.57;;;;;;;;;;5092159;28;20035;-80
2022/07/29 03:15:27;;;;;;;13.82;12.27;;;;;;;;;;5092642;28;20031;-80
2022/07/29 03:17:55;;;;;;;20.90;14.20;;;;;;;;;;5092489;28;20471;-80
2022/07/29 03:20:21;;;;;;;15.52;12.57;;;;;;;;;;5092717;28;20033;-80
2022/07/29 03:22:47;;;;;;;12.25;10.50;;;;;;;;;;5092084;28;20081;-80
2022/07/29 03:25:17;;;;;;;12.45;11.15;;;;;;;;;;5092653;28;20098;-80
2022/07/29 03:27:44;;;;;;;11.57;10.35;;;;;;;;;;5092434;28;20020;-80
2022/07/29 03:30:11;;;;;;;11.15;10.10;;;;;;;;;;5092577;28;20387;-80
2022/07/29 03:32:37;;;;;;;11.45;10.35;;;;;;;;;;5092106;28;20020;-80
2022/07/29 03:35:04;;;;;;;12.27;10.98;;;;;;;;;;5092156;28;20023;-80
2022/07/29 03:37:30;;;;;;;13.60;11.77;;;;;;;;;;5092626;28;20029;-80
2022/07/29 03:39:57;;;;;;;11.55;10.52;;;;;;;;;;5092068;28;20024;-80
2022/07/29 03:42:28;;;;;;;11.32;10.25;;;;;;;;;;5092071;28;20178;-80
2022/07/29 03:44:56;;;;;;;12.38;11.38;;;;;;;;;;5092255;28;20027;-80
2022/07/29 03:47:25;;;;;;;12.45;11.35;;;;;;;;;;5092320;28;20077;-80
2022/07/29 03:49:52;;;;;;;13.57;12.18;;;;;;;;;;5092239;28;20027;-80
2022/07/29 03:52:19;;;;;;;13.70;12.13;;;;;;;;;;5092122;28;20047;-80
2022/07/29 03:54:45;;;;;;;15.43;13.65;;;;;;;;;;5091845;28;20020;-79
2022/07/29 03:57:12;;;;;;;14.15;11.90;;;;;;;;;;5092375;28;20047;-80
2022/07/29 03:59:39;;;;;;;17.98;14.88;;;;;;;;;;5091671;28;20024;-80
2022/07/29 04:02:05;;;;;;;34.35;25.73;;;;;;;;;;5092112;28;20081;-80
2022/07/29 04:04:35;;;;;;;16.95;12.73;;;;;;;;;;5093708;28;20046;-79
2022/07/29 04:07:02;;;;;;;14.15;11.45;;;;;;;;;;5096110;28;20028;-80
2022/07/29 04:09:28;;;;;;;12.50;11.13;;;;;;;;;;5096211;28;20419;-80
2022/07/29 04:11:56;;;;;;;13.65;11.30;;;;;;;;;;5077640;28;20148;-80
2022/07/29 04:14:22;;;;;;;15.10;13.55;;;;;;;;;;5095969;28;20028;-80
2022/07/29 04:16:48;;;;;;;16.30;14.52;;;;;;;;;;5095781;28;20031;-80
2022/07/29 04:19:14;;;;;;;13.38;12.15;;;;;;;;;;5095967;28;20089;-80
2022/07/29 04:21:41;;;;;;;13.88;11.05;;;;;;;;;;5095639;28;20028;-80
2022/07/29 04:24:08;;;;;;;12.60;10.63;;;;;;;;;;5095848;28;20043;-80
2022/07/29 04:26:34;;;;;;;11.93;10.63;;;;;;;;;;5095625;28;20475;-81
2022/07/29 04:29:00;;;;;;;12.20;11.00;;;;;;;;;;5095664;28;20378;-81
2022/07/29 04:31:26;;;;;;;14.48;13.07;;;;;;;;;;5095631;28;20364;-81
2022/07/29 04:33:52;;;;;;;11.93;10.82;;;;;;;;;;5095228;28;20091;-80
2022/07/29 04:36:19;;;;;;;15.80;14.20;;;;;;;;;;5077279;28;20048;-80
2022/07/29 04:38:45;;;;;;;11.32;10.20;;;;;;;;;;5094624;28;20051;-81
2022/07/29 04:41:11;;;;;;;11.18;10.00;;;;;;;;;;5094878;28;20048;-81
2022/07/29 04:43:37;;;;;;;9.40;8.60;;;;;;;;;;5095184;28;20103;-81
2022/07/29 04:46:04;;;;;;;9.93;8.98;;;;;;;;;;5095147;28;20026;-81
2022/07/29 04:48:30;;;;;;;10.30;9.38;;;;;;;;;;5095356;28;20048;-80
2022/07/29 04:50:56;;;;;;;9.43;8.57;;;;;;;;;;5095064;28;20031;-81
2022/07/29 04:53:22;;;;;;;9.35;8.60;;;;;;;;;;5095328;28;20026;-80
2022/07/29 04:55:49;;;;;;;10.15;9.00;;;;;;;;;;5094922;28;20139;-81
2022/07/29 04:58:15;;;;;;;11.80;10.70;;;;;;;;;;5094795;28;20042;-79
2022/07/29 05:00:41;;;;;;;14.68;12.77;;;;;;;;;;5094923;28;20020;-79
2022/07/29 05:03:07;;;;;;;11.75;10.55;;;;;;;;;;5094691;28;20103;-80
2022/07/29 05:05:33;;;;;;;13.02;11.73;;;;;;;;;;5094943;28;20356;-81
2022/07/29 05:07:59;;;;;;;26.02;12.50;;;;;;;;;;5076324;28;20031;-80
2022/07/29 05:10:25;;;;;;;15.18;13.65;;;;;;;;;;5094756;28;20095;-80
2022/07/29 05:12:52;;;;;;;14.90;13.30;;;;;;;;;;5094514;28;20024;-86
2022/07/29 05:15:18;;;;;;;13.13;11.73;;;;;;;;;;5076269;28;20371;-82
2022/07/29 05:17:44;;;;;;;13.13;11.82;;;;;;;;;;5094565;28;20322;-83
2022/07/29 05:20:11;;;;;;;12.38;11.13;;;;;;;;;;5094613;28;20027;-88
2022/07/29 05:22:37;;;;;;;11.15;10.15;;;;;;;;;;5093913;28;20500;-80
2022/07/29 05:25:03;;;;;;;10.30;9.40;;;;;;;;;;5094162;28;20031;-81
2022/07/29 05:27:29;;;;;;;10.75;8.88;;;;;;;;;;5087583;28;20116;-81
2022/07/29 05:29:56;;;;;;;9.40;8.40;;;;;;;;;;5073889;28;20035;-77
2022/07/29 05:32:22;;;;;;;16.73;15.15;;;;;;;;;;5073855;28;20043;-78
2022/07/29 05:34:48;;;;;;;49.60;35.25;;;;;;;;;;5073693;28;20029;-81
2022/07/29 05:37:15;;;;;;;27.85;19.67;;;;;;;;;;5082496;28;20055;-84
2022/07/29 05:39:44;;;;;;;19.80;16.08;;;;;;;;;;5091061;28;20020;-77
2022/07/29 05:42:10;;;;;;;14.43;12.20;;;;;;;;;;5093421;28;20116;-79
2022/07/29 05:44:40;;;;;;;11.27;10.18;;;;;;;;;;5093687;28;20020;-80
2022/07/29 05:47:06;;;;;;;9.57;8.60;;;;;;;;;;5090067;28;20135;-80
2022/07/29 05:49:32;;;;;;;10.70;8.90;;;;;;;;;;5087691;28;20066;-79
2022/07/29 05:51:59;;;;;;;9.98;8.98;;;;;;;;;;5088191;28;20032;-82
2022/07/29 05:54:25;;;;;;;10.50;9.43;;;;;;;;;;5079009;28;20032;-80
2022/07/29 05:56:51;;;;;;;10.02;9.02;;;;;;;;;;5067605;28;20028;-80
2022/07/29 05:59:17;;;;;;;10.65;9.60;;;;;;;;;;5094146;28;20478;-80
2022/07/29 06:01:43;;;;;;;16.65;9.05;;;;;;;;;;5092725;28;20032;-81
2022/07/29 06:04:09;;;;;;;12.00;9.13;;;;;;;;;;5093522;28;20022;-81
2022/07/29 06:06:36;;;;;;;12.88;9.27;;;;;;;;;;5110668;28;20060;-80
2022/07/29 06:09:02;;;;;;;10.23;9.02;;;;;;;;;;5093034;28;20073;-80
2022/07/29 06:11:29;;;;;;;9.60;8.50;;;;;;;;;;5093446;28;20031;-78
2022/07/29 06:13:55;;;;;;;8.43;7.72;;;;;;;;;;5080974;28;20025;-81
2022/07/29 06:16:21;;;;;;;9.90;8.90;;;;;;;;;;5078627;28;20031;-83
2022/07/29 06:18:47;;;;;;;9.20;8.40;;;;;;;;;;5082636;28;20161;-79
2022/07/29 06:21:13;;;;;;;12.18;10.90;;;;;;;;;;5072881;28;20021;-82
2022/07/29 06:23:39;;;;;;;15.07;13.80;;;;;;;;;;5083327;28;20024;-82
2022/07/29 06:26:05;;;;;;;13.85;12.57;;;;;;;;;;5097848;28;20062;-84
2022/07/29 06:28:32;;;;;;;14.77;13.38;;;;;;;;;;5075210;28;20021;-81
2022/07/29 06:30:58;;;;;;;15.60;14.10;;;;;;;;;;5107674;28;20028;-82
2022/07/29 06:33:24;;;;;;;88.25;45.25;;;;;;;;;;5097563;28;20053;-83
2022/07/29 06:35:50;;;;;;;116.85;64.22;;;;;;;;;;5089595;28;20123;-80
2022/07/29 06:38:16;;;;;;;114.10;61.65;;;;;;;;;;5075848;28;20050;-80
2022/07/29 06:43:37;;;;;;;53.33;31.65;;;;;;;;;;5079352;28;20118;-82
2022/07/29 06:46:08;;;;;;;28.48;18.92;;;;;;;;;;5069898;28;20406;-80
2022/07/29 06:48:35;;;;;;;29.60;26.35;;;;;;;;;;5087347;28;20097;-74
2022/07/29 06:51:02;;;;;;;39.08;35.33;;;;;;;;;;5072091;28;20032;-80
2022/07/29 06:53:32;;;;;;;16.15;12.50;;;;;;;;;;5071506;28;20024;-86
2022/07/29 06:55:59;;;;;;;106.03;49.38;;;;;;;;;;5052605;28;20417;-81
2022/07/29 06:58:25;;;;;;;211.85;86.57;;;;;;;;;;5080057;28;20040;-83
2022/07/29 07:00:51;;;;;;;74.65;37.22;;;;;;;;;;5090533;28;20082;-80
2022/07/29 07:03:18;;;;;;;65.05;30.83;;;;;;;;;;5094877;28;20098;-84
2022/07/29 07:05:44;;;;;;;34.83;26.38;;;;;;;;;;5086554;28;20012;-84
2022/07/29 07:08:11;;;;;;;16.45;14.70;;;;;;;;;;5079942;28;20025;-84
2022/07/29 07:10:37;;;;;;;23.80;17.55;;;;;;;;;;5071398;28;20016;-83
2022/07/29 07:13:03;;;;;;;30.88;18.30;;;;;;;;;;5083888;28;20055;-81
2022/07/29 07:15:29;;;;;;;216.55;94.22;;;;;;;;;;5090085;28;20042;-81
2022/07/29 07:17:55;;;;;;;191.07;85.40;;;;;;;;;;5062131;28;20085;-81
2022/07/29 07:20:21;;;;;;;68.05;35.05;;;;;;;;;;5101108;28;20055;-82
2022/07/29 07:22:47;;;;;;;220.25;96.75;;;;;;;;;;5096661;28;20032;-86
2022/07/29 07:25:14;;;;;;;93.45;44.17;;;;;;;;;;5090776;28;20093;-83
2022/07/29 07:27:43;;;;;;;87.35;42.67;;;;;;;;;;5079736;28;20033;-86
2022/07/29 07:30:09;;;;;;;56.38;33.67;;;;;;;;;;5077793;28;20754;-85
2022/07/29 07:32:41;;;;;;;43.25;21.80;;;;;;;;;;5070876;28;20032;-82
2022/07/29 07:35:10;;;;;;;40.28;28.33;;;;;;;;;;5070985;28;20029;-81
2022/07/29 07:37:37;;;;;;;31.33;20.42;;;;;;;;;;5057326;28;20032;-82
2022/07/29 07:40:03;;;;;;;22.92;16.20;;;;;;;;;;5075194;28;20028;-83
2022/07/29 07:42:37;;;;;;;11.82;9.93;;;;;;;;;;5078252;28;20497;-84
2022/07/29 07:45:04;;;;;;;;;;;;;;;;;;5086977;28;20037;-83
2022/07/29 07:47:30;;;;;;;11.45;10.38;;;;;;;;;;5086544;28;19908;-87
2022/07/29 07:49:56;;;;;;;10.50;9.57;;;;;;;;;;5082492;28;20031;-79
2022/07/29 07:52:22;;;;;;;10.70;9.60;;;;;;;;;;5094725;28;20474;-81
2022/07/29 07:54:49;;;;;;;9.85;8.98;;;;;;;;;;5092594;28;20032;-84
2022/07/29 07:57:15;;;;;;;12.05;10.80;;;;;;;;;;5088677;28;20051;-82
2022/07/29 07:59:42;;;;;;;17.42;15.82;;;;;;;;;;5088557;28;20060;-85
2022/07/29 08:02:09;;;;;;;7.50;6.90;;;;;;;;;;5086610;28;20029;-84
2022/07/29 08:04:35;;;;;;;7.07;6.50;;;;;;;;;;5114945;28;20027;-80
2022/07/29 08:07:02;;;;;;;7.25;6.70;;;;;;;;;;5115430;28;20478;-79
2022/07/29 08:09:29;;;;;;;7.65;6.95;;;;;;;;;;5095024;28;20031;-83
2022/07/29 08:11:55;;;;;;;12.48;11.48;;;;;;;;;;5094926;28;20651;-81
2022/07/29 08:14:21;;;;;;;27.88;25.58;;;;;;;;;;5094238;28;20024;-82
2022/07/29 08:16:47;;;;;;;13.65;12.55;;;;;;;;;;5093794;28;20039;-81
2022/07/29 08:19:14;;;;;;;10.75;9.80;;;;;;;;;;5082575;28;20430;-80
2022/07/29 08:21:40;;;;;;;9.25;8.40;;;;;;;;;;5100565;28;20039;-78
2022/07/29 08:26:51;;;;;;;9.60;8.70;;;;;;;;;;5082161;28;20066;-83
2022/07/29 08:29:17;;;;;;;8.48;7.68;;;;;;;;;;5094267;28;20840;-81
2022/07/29 08:31:43;;;;;;;8.63;7.82;;;;;;;;;;5087695;28;20028;-80
2022/07/29 08:34:09;;;;;;;9.95;8.32;;;;;;;;;;5089616;28;20020;-89
2022/07/29 08:36:36;;;;;;;9.57;8.70;;;;;;;;;;5074572;28;20044;-83
2022/07/29 08:39:02;;;;;;;9.25;8.35;;;;;;;;;;5074661;28;20475;-83
2022/07/29 08:41:28;;;;;;;13.23;11.27;;;;;;;;;;5090213;28;20113;-84
2022/07/29 08:43:54;;;;;;;11.13;9.90;;;;;;;;;;5069322;28;20060;-84
2022/07/29 08:46:21;;;;;;;12.27;10.98;;;;;;;;;;5066953;28;20055;-79
2022/07/29 08:48:48;;;;;;;134.70;56.08;;;;;;;;;;5082176;28;20104;-84
2022/07/29 08:51:19;;;;;;;72.65;34.22;;;;;;;;;;5072717;28;20391;-79
2022/07/29 08:53:47;;;;;;;151.25;66.95;;;;;;;;;;5085537;28;20027;-81
2022/07/29 08:56:14;;;;;;;52.45;28.13;;;;;;;;;;5093222;28;20024;-81
2022/07/29 08:58:40;;;;;;;27.58;21.25;;;;;;;;;;5090500;28;20107;-80
2022/07/29 09:01:07;;;;;;;30.17;19.02;;;;;;;;;;5086265;28;20101;-78
2022/07/29 09:03:35;;;;;;;19.35;12.90;;;;;;;;;;5073140;28;20035;-80
2022/07/29 09:06:03;;;;;;;12.50;10.65;;;;;;;;;;5087187;28;20382;-79
2022/07/29 09:08:29;;;;;;;12.75;11.43;;;;;;;;;;5091960;28;20028;-82
2022/07/29 09:10:55;;;;;;;11.35;9.75;;;;;;;;;;5093678;28;20483;-79
2022/07/29 09:13:22;;;;;;;8.82;8.05;;;;;;;;;;5078899;28;20029;-80
2022/07/29 09:15:48;;;;;;;10.65;8.68;;;;;;;;;;5082073;28;20030;-80
2022/07/29 09:18:33;;;;;;;9.32;8.50;;;;;;;;;;5092115;28;20093;-80
2022/07/29 09:24:02;;;;;;;9.00;8.07;;;;;;;;;;5092630;28;20034;-79
2022/07/29 09:26:30;;;;;;;8.60;7.80;;;;;;;;;;5091714;28;20027;-81
2022/07/29 09:28:56;;;;;;;7.22;6.63;;;;;;;;;;5092581;28;20032;-82
2022/07/29 09:31:49;;;;;;;6.65;6.05;;;;;;;;;;5088699;28;20016;-80
2022/07/29 09:34:16;;;;;;;7.72;7.03;;;;;;;;;;5082645;28;20044;-81
2022/07/29 09:36:44;;;;;;;7.60;7.00;;;;;;;;;;5086866;28;20052;-80
2022/07/29 09:39:10;;;;;;;35.25;31.75;;;;;;;;;;5091057;28;20036;-79
2022/07/29 09:41:45;;;;;;;13.65;12.38;;;;;;;;;;5090014;28;20036;-82
2022/07/29 09:44:12;;;;;;;10.07;9.18;;;;;;;;;;5089241;28;20478;-82
2022/07/29 09:46:38;;;;;;;8.27;7.57;;;;;;;;;;5089424;28;20099;-84
2022/07/29 09:49:08;;;;;;;9.13;8.38;;;;;;;;;;5091924;28;20035;-81
2022/07/29 09:51:34;;;;;;;8.63;7.78;;;;;;;;;;5074032;28;20031;-80
2022/07/29 09:54:03;;;;;;;12.52;9.85;;;;;;;;;;5087446;28;20433;-83
2022/07/29 09:56:42;;;;;;;36.45;21.98;;;;;;;;;;5082815;28;20023;-81
2022/07/29 09:59:11;;;;;;;41.25;22.15;;;;;;;;;;5089892;28;20024;-80
2022/07/29 10:01:37;;;;;;;16.42;12.77;;;;;;;;;;5088264;28;20043;-80
2022/07/29 10:04:03;;;;;;;10.27;9.23;;;;;;;;;;5080717;28;20119;-80
2022/07/29 10:06:29;;;;;;;9.52;8.52;;;;;;;;;;5091957;28;20094;-82
2022/07/29 10:09:07;;;;;;;14.60;10.02;;;;;;;;;;5087457;28;20038;-84
2022/07/29 10:11:33;;;;;;;10.30;9.20;;;;;;;;;;5088107;28;20031;-83
2022/07/29 10:14:02;;;;;;;15.57;13.18;;;;;;;;;;5081442;28;20031;-81
2022/07/29 10:16:32;;;;;;;15.52;12.23;;;;;;;;;;5071734;28;20035;-83
2022/07/29 10:18:59;;;;;;;11.35;10.35;;;;;;;;;;5079264;28;20375;-82
2022/07/29 10:21:26;;;;;;;12.75;11.43;;;;;;;;;;5081369;28;20428;-81
2022/07/29 10:23:53;;;;;;;13.43;12.10;;;;;;;;;;5090125;28;20043;-82
2022/07/29 10:26:22;;;;;;;11.35;10.20;;;;;;;;;;5089835;28;20103;-81
2022/07/29 10:28:48;;;;;;;20.27;17.70;;;;;;;;;;5077729;28;20035;-81
2022/07/29 10:31:33;;;;;;;13.82;12.52;;;;;;;;;;5083063;28;20024;-82
2022/07/29 10:34:18;;;;;;;11.77;10.52;;;;;;;;;;5089833;28;20130;-81
2022/07/29 10:36:53;;;;;;;14.70;13.38;;;;;;;;;;5070443;28;20161;-81
2022/07/29 10:39:38;;;;;;;13.30;12.10;;;;;;;;;;5086840;28;20020;-83
2022/07/29 10:42:14;;;;;;;12.43;11.23;;;;;;;;;;5085340;28;20055;-81
2022/07/29 10:44:42;;;;;;;16.60;15.20;;;;;;;;;;5089054;28;20027;-81
2022/07/29 10:47:08;;;;;;;16.23;14.90;;;;;;;;;;5087472;28;20107;-83
2022/07/29 10:49:34;;;;;;;11.48;10.57;;;;;;;;;;5085802;28;20493;-83
2022/07/29 10:52:00;;;;;;;10.68;9.82;;;;;;;;;;5081404;28;20648;-83
2022/07/29 10:54:46;;;;;;;11.25;10.38;;;;;;;;;;5067517;28;20474;-83
2022/07/29 10:57:31;;;;;;;14.38;13.07;;;;;;;;;;5068439;28;20503;-84
2022/07/29 11:00:16;;;;;;;13.77;12.48;;;;;;;;;;5090713;28;20069;-82
2022/07/29 11:02:43;;;;;;;11.40;10.30;;;;;;;;;;5087756;28;20031;-85
2022/07/29 11:05:12;;;;;;;9.82;9.02;;;;;;;;;;5091369;28;20020;-86
2022/07/29 11:07:39;;;;;;;10.55;9.75;;;;;;;;;;5085673;28;20471;-85
2022/07/29 11:10:15;;;;;;;11.02;9.95;;;;;;;;;;5071238;28;20478;-84
2022/07/29 11:12:41;;;;;;;13.30;11.93;;;;;;;;;;5071705;28;20040;-83
2022/07/29 11:15:18;;;;;;;14.07;12.65;;;;;;;;;;5086392;28;20056;-83
2022/07/29 11:18:04;;;;;;;11.55;10.40;;;;;;;;;;5088592;28;20533;-86
2022/07/29 11:20:33;;;;;;;22.98;20.20;;;;;;;;;;5086078;28;20039;-88
2022/07/29 11:23:00;;;;;;;14.15;13.05;;;;;;;;;;5070251;28;20081;-87
2022/07/29 11:25:26;;;;;;;11.23;10.23;;;;;;;;;;5055560;28;20115;-84
2022/07/29 11:27:54;;;;;;;10.57;9.73;;;;;;;;;;5070100;28;20406;-86
2022/07/29 11:30:20;;;;;;;9.95;9.25;;;;;;;;;;5070610;28;20033;-86
2022/07/29 11:32:50;;;;;;;11.50;10.50;;;;;;;;;;5053088;28;20047;-84
2022/07/29 11:35:17;;;;;;;11.68;10.57;;;;;;;;;;5060880;28;20494;-85
2022/07/29 11:37:46;;;;;;;11.18;10.27;;;;;;;;;;5084345;28;20463;-84
2022/07/29 11:40:16;;;;;;;9.20;8.48;;;;;;;;;;5090687;28;20067;-85
2022/07/29 11:42:43;;;;;;;10.35;9.65;;;;;;;;;;5091057;28;20028;-84
2022/07/29 11:45:13;;;;;;;13.25;12.10;;;;;;;;;;5056542;28;20031;-88
2022/07/29 11:47:48;;;;;;;14.00;12.90;;;;;;;;;;5080105;28;20398;-86
2022/07/29 11:50:33;;;;;;;11.80;10.90;;;;;;;;;;5087334;28;20028;-85
2022/07/29 11:53:00;;;;;;;11.05;10.05;;;;;;;;;;5091654;28;20027;-83
2022/07/29 11:55:26;;;;;;;11.73;10.70;;;;;;;;;;5073805;28;20339;-84
2022/07/29 11:57:55;;;;;;;12.40;10.63;;;;;;;;;;5091631;28;20028;-83
2022/07/29 12:00:40;;;;;;;10.68;9.88;;;;;;;;;;5072960;28;20020;-84
2022/07/29 12:03:07;;;;;;;10.25;9.32;;;;;;;;;;5091015;28;20020;-76
2022/07/29 12:05:44;;;;;;;10.20;9.25;;;;;;;;;;5091570;28;20438;-85
2022/07/29 12:08:11;;;;;;;13.15;11.80;;;;;;;;;;5073277;28;20055;-82
2022/07/29 12:10:37;;;;;;;10.60;9.60;;;;;;;;;;5091911;28;20016;-82
2022/07/29 12:13:03;;;;;;;20.45;13.82;;;;;;;;;;5086164;28;20027;-84
2022/07/29 12:15:29;;;;;;;12.20;9.55;;;;;;;;;;5089451;28;20525;-84
2022/07/29 12:17:56;;;;;;;10.20;9.20;;;;;;;;;;5085011;28;20032;-82
2022/07/29 12:20:23;;;;;;;11.32;10.30;;;;;;;;;;5071950;28;20063;-82
2022/07/29 12:22:49;;;;;;;10.55;9.65;;;;;;;;;;5068769;28;20032;-83
2022/07/29 12:25:17;;;;;;;9.35;8.55;;;;;;;;;;5082954;28;20024;-84
2022/07/29 12:27:43;;;;;;;8.75;8.05;;;;;;;;;;5095250;28;20121;-84
2022/07/29 12:30:10;;;;;;;9.95;9.13;;;;;;;;;;5088751;28;20526;-86
2022/07/29 12:32:38;;;;;;;10.02;9.32;;;;;;;;;;5085087;28;20521;-84
2022/07/29 12:35:07;;;;;;;9.80;9.02;;;;;;;;;;5068365;28;20160;-81
2022/07/29 12:37:35;;;;;;;9.35;8.55;;;;;;;;;;5075268;28;20067;-84
2022/07/29 12:40:01;;;;;;;9.80;9.02;;;;;;;;;;5056978;28;20024;-81
2022/07/29 12:42:27;;;;;;;9.80;9.10;;;;;;;;;;5075040;28;20032;-80
2022/07/29 12:44:53;;;;;;;21.80;14.18;;;;;;;;;;5080199;28;20084;-81
2022/07/29 12:47:20;;;;;;;33.15;20.40;;;;;;;;;;5088758;28;20093;-83
2022/07/29 12:49:46;;;;;;;21.98;15.80;;;;;;;;;;5095031;28;20027;-81
2022/07/29 12:52:29;;;;;;;20.52;13.27;;;;;;;;;;5094556;28;20080;-82
2022/07/29 12:54:55;;;;;;;10.15;9.25;;;;;;;;;;5073226;28;20028;-84
2022/07/29 12:57:24;;;;;;;25.45;23.13;;;;;;;;;;5070960;28;20035;-85
2022/07/29 13:00:01;;;;;;;15.00;13.80;;;;;;;;;;5090444;28;20028;-82
2022/07/29 13:02:27;;;;;;;13.00;11.80;;;;;;;;;;5087684;28;20391;-81
2022/07/29 13:04:57;;;;;;;10.43;9.57;;;;;;;;;;5093857;28;20020;-82
2022/07/29 13:07:28;;;;;;;8.60;7.90;;;;;;;;;;5094650;28;20471;-83
2022/07/29 13:09:54;;;;;;;10.07;9.18;;;;;;;;;;5094700;28;20097;-82
2022/07/29 13:12:20;;;;;;;10.57;9.68;;;;;;;;;;5094007;28;20020;-81
2022/07/29 13:14:50;;;;;;;8.77;8.07;;;;;;;;;;5094326;28;20032;-81
2022/07/29 13:17:21;;;;;;;8.80;8.00;;;;;;;;;;5094594;28;20024;-79
2022/07/29 13:19:51;;;;;;;8.32;7.72;;;;;;;;;;5094374;28;20038;-80
2022/07/29 13:22:19;;;;;;;8.70;7.72;;;;;;;;;;5085954;28;20028;-84
2022/07/29 13:24:49;;;;;;;7.18;6.68;;;;;;;;;;5087548;28;20021;-86
2022/07/29 13:27:16;;;;;;;6.90;6.30;;;;;;;;;;5077313;28;20022;-87
2022/07/29 13:29:42;;;;;;;7.82;7.25;;;;;;;;;;5093549;28;20024;-83
2022/07/29 13:32:08;;;;;;;7.05;6.50;;;;;;;;;;5075320;28;20112;-86
2022/07/29 13:34:34;;;;;;;7.85;7.20;;;;;;;;;;5093704;28;20523;-85
2022/07/29 13:37:00;;;;;;;8.60;7.80;;;;;;;;;;5074821;28;20494;-85
2022/07/29 13:39:27;;;;;;;7.20;6.70;;;;;;;;;;5073334;28;20493;-86
2022/07/29 13:41:53;;;;;;;7.60;7.00;;;;;;;;;;5093591;28;20027;-86
2022/07/29 13:44:19;;;;;;;7.40;6.85;;;;;;;;;;5093719;28;20024;-86
2022/07/29 13:46:52;;;;;;;7.82;7.22;;;;;;;;;;5074990;28;20436;-85
2022/07/29 13:49:27;;;;;;;;;;;;;;;;;;5094056;28;20016;-85
2022/07/29 13:51:54;;;;;;;7.10;6.50;;;;;;;;;;5093725;28;20351;-87
2022/07/29 13:54:26;;;;;;;7.05;6.45;;;;;;;;;;5091921;28;20027;-86
2022/07/29 13:56:52;;;;;;;6.82;6.20;;;;;;;;;;5075858;28;20024;-87
2022/07/29 13:59:20;;;;;;;6.93;6.20;;;;;;;;;;5093754;28;20020;-87
2022/07/29 14:01:46;;;;;;;7.40;6.78;;;;;;;;;;5093832;28;20052;-86
2022/07/29 14:04:12;;;;;;;7.30;6.70;;;;;;;;;;5093879;28;20017;-86
2022/07/29 14:06:38;;;;;;;7.07;6.53;;;;;;;;;;5075854;28;20016;-86
2022/07/29 14:11:51;;;;;;;6.32;5.82;;;;;;;;;;5093833;28;20089;-86
2022/07/29 14:14:17;;;;;;;7.28;6.57;;;;;;;;;;5093642;28;20020;-85
2022/07/29 14:16:43;;;;;;;6.32;5.72;;;;;;;;;;5075522;28;20486;-84
2022/07/29 14:19:10;;;;;;;6.85;6.35;;;;;;;;;;5075410;28;20114;-85
2022/07/29 14:21:36;;;;;;;6.90;6.40;;;;;;;;;;5075294;28;20020;-83
2022/07/29 14:24:03;;;;;;;10.73;6.93;;;;;;;;;;5093502;28;20024;-85
2022/07/29 14:26:29;;;;;;;7.97;7.28;;;;;;;;;;5075473;28;20463;-84
2022/07/29 14:28:55;;;;;;;7.40;6.70;;;;;;;;;;5075277;28;20077;-85
2022/07/29 14:31:21;;;;;;;8.82;7.03;;;;;;;;;;5075435;28;20082;-82
2022/07/29 14:33:47;;;;;;;6.80;6.20;;;;;;;;;;5075094;28;20509;-81
2022/07/29 14:36:16;;;;;;;6.90;6.35;;;;;;;;;;5093387;28;20067;-86
2022/07/29 14:38:50;;;;;;;5.78;5.22;;;;;;;;;;5092842;28;20020;-86
2022/07/29 14:41:16;;;;;;;6.78;6.28;;;;;;;;;;5074710;28;20039;-84
2022/07/29 14:43:42;;;;;;;6.47;5.97;;;;;;;;;;5093060;28;20028;-85
2022/07/29 14:46:08;;;;;;;6.75;6.25;;;;;;;;;;5093227;28;20035;-86
2022/07/29 14:48:35;;;;;;;6.95;5.32;;;;;;;;;;5092716;28;20039;-85